Time;durP1;ratioP1;P1;durP2;ratioP2;P2;SDS_P1;SDS_P2;PMS_P1;PMS_P2;Temp;Humidity;BMP_temperature;BMP_pressure;BME280_temperature;BME280_humidity;BME280_pressure;Samples;Min_cycle;Max_cycle;Signal;HPM_P1;HPM_P2
2023/08/07 00:01:07;;;;;;;3.07;2.20;;;12.30;99.90;;;;;;4959537;29;20465;-66
2023/08/07 00:03:35;;;;;;;3.13;2.13;;;12.20;99.90;;;;;;4957896;28;20959;-69
2023/08/07 00:06:04;;;;;;;3.00;1.77;;;12.20;99.90;;;;;;4956991;29;20441;-66
2023/08/07 00:08:31;;;;;;;4.57;1.90;;;12.20;99.90;;;;;;4957460;29;20459;-64
2023/08/07 00:11:06;;;;;;;4.10;2.00;;;12.30;99.90;;;;;;4957813;28;20433;-65
2023/08/07 00:13:33;;;;;;;2.57;1.93;;;12.20;99.90;;;;;;4957279;29;20949;-65
2023/08/07 00:16:01;;;;;;;2.90;2.07;;;12.20;99.90;;;;;;4957652;28;20759;-65
2023/08/07 00:18:29;;;;;;;2.87;1.67;;;12.30;99.90;;;;;;4958692;29;20463;-66
2023/08/07 00:20:56;;;;;;;4.20;2.20;;;12.30;99.90;;;;;;4959526;29;20497;-66
2023/08/07 00:23:25;;;;;;;3.50;1.90;;;12.30;99.90;;;;;;4959688;28;20498;-64
2023/08/07 00:25:52;;;;;;;3.60;1.90;;;12.30;99.90;;;;;;4962584;29;20437;-65
2023/08/07 00:28:19;;;;;;;2.90;2.13;;;12.30;99.90;;;;;;4963188;29;20909;-64
2023/08/07 00:30:46;;;;;;;4.03;2.23;;;12.30;99.90;;;;;;4963913;29;20443;-65
2023/08/07 00:33:14;;;;;;;3.77;2.60;;;12.30;99.90;;;;;;4963196;29;20506;-65
2023/08/07 00:35:41;;;;;;;5.00;2.33;;;12.30;99.90;;;;;;4962014;29;20445;-65
2023/08/07 00:38:09;;;;;;;2.73;2.20;;;12.30;99.90;;;;;;4962155;28;20775;-65
2023/08/07 00:40:41;;;;;;;3.63;2.70;;;12.30;99.90;;;;;;4962120;29;20490;-65
2023/08/07 00:43:08;;;;;;;4.63;3.10;;;12.40;99.90;;;;;;4962207;29;20437;-65
2023/08/07 00:45:38;;;;;;;3.87;2.63;;;12.30;99.90;;;;;;4962184;29;20466;-68
2023/08/07 00:48:06;;;;;;;4.27;3.20;;;12.30;99.90;;;;;;4962311;29;20465;-69
2023/08/07 00:50:34;;;;;;;4.00;3.40;;;12.30;99.90;;;;;;4962324;29;20459;-68
2023/08/07 00:53:01;;;;;;;4.10;3.30;;;12.30;99.90;;;;;;4962055;28;20457;-65
2023/08/07 00:55:30;;;;;;;4.50;4.10;;;12.30;99.90;;;;;;4961148;29;20437;-67
2023/08/07 00:57:59;;;;;;;4.77;4.13;;;12.30;99.90;;;;;;4961207;28;20467;-66
2023/08/07 01:00:28;;;;;;;5.80;4.70;;;12.30;99.90;;;;;;4961896;29;20494;-66
2023/08/07 01:02:56;;;;;;;7.97;5.20;;;12.30;99.90;;;;;;4962182;28;20490;-67
2023/08/07 01:05:25;;;;;;;6.53;5.83;;;12.30;99.90;;;;;;4962494;28;20899;-67
2023/08/07 01:07:54;;;;;;;7.07;6.20;;;12.30;99.90;;;;;;4963288;28;20459;-66
2023/08/07 01:10:32;;;;;;;11.10;6.40;;;12.30;99.90;;;;;;4981448;28;20460;-68
2023/08/07 01:13:08;;;;;;;13.23;6.30;;;12.30;99.90;;;;;;4981416;28;20461;-66
2023/08/07 01:15:37;;;;;;;9.80;6.90;;;12.30;99.90;;;;;;4981675;28;20903;-67
2023/08/07 01:18:05;;;;;;;6.70;6.00;;;12.30;99.90;;;;;;4981795;28;20552;-65
2023/08/07 01:20:33;;;;;;;8.37;6.40;;;12.30;99.90;;;;;;4981395;28;20496;-66
2023/08/07 01:23:01;;;;;;;5.90;5.10;;;12.20;99.90;;;;;;4981430;28;20557;-65
2023/08/07 01:25:29;;;;;;;7.13;6.17;;;12.20;99.90;;;;;;4981480;28;20752;-67
2023/08/07 01:28:05;;;;;;;7.27;6.57;;;12.20;99.90;;;;;;4981442;28;20466;-67
2023/08/07 01:30:37;;;;;;;7.50;5.43;;;12.20;99.90;;;;;;4981454;28;20472;-68
2023/08/07 01:33:11;;;;;;;6.43;5.17;;;12.20;99.90;;;;;;4982107;28;20515;-68
2023/08/07 01:35:43;;;;;;;7.80;5.70;;;12.20;99.90;;;;;;4981004;28;20764;-67
2023/08/07 01:38:13;;;;;;;6.40;4.83;;;12.20;99.90;;;;;;4980809;28;20945;-68
2023/08/07 01:40:41;;;;;;;7.33;4.07;;;12.30;99.90;;;;;;4980961;28;20464;-66
2023/08/07 01:43:09;;;;;;;4.93;3.33;;;12.20;99.90;;;;;;4981366;28;20472;-67
2023/08/07 01:45:36;;;;;;;7.37;3.67;;;12.20;99.90;;;;;;4980430;28;20468;-67
2023/08/07 01:48:04;;;;;;;7.53;3.83;;;12.20;99.90;;;;;;4979667;28;20763;-67
2023/08/07 01:50:31;;;;;;;6.40;3.07;;;12.20;99.90;;;;;;4980375;28;20453;-67
2023/08/07 01:52:58;;;;;;;8.40;2.87;;;12.20;99.90;;;;;;4980611;28;20486;-67
2023/08/07 01:55:27;;;;;;;5.70;2.77;;;12.20;99.90;;;;;;4980882;28;20814;-67
2023/08/07 01:57:54;;;;;;;5.60;2.20;;;12.10;99.90;;;;;;4980515;28;20748;-67
2023/08/07 02:00:21;;;;;;;2.87;2.17;;;12.20;99.90;;;;;;4980141;28;20940;-66
2023/08/07 02:02:49;;;;;;;3.00;2.20;;;12.20;99.90;;;;;;4980207;28;20494;-66
2023/08/07 02:05:16;;;;;;;4.60;2.57;;;12.20;99.90;;;;;;4980781;28;20436;-65
2023/08/07 02:07:44;;;;;;;4.60;2.20;;;12.20;99.90;;;;;;4979742;28;20891;-66
2023/08/07 02:10:11;;;;;;;3.20;1.97;;;12.20;99.90;;;;;;4960394;28;20465;-67
2023/08/07 02:12:39;;;;;;;3.40;2.60;;;12.20;99.90;;;;;;4961019;28;20777;-67
2023/08/07 02:15:08;;;;;;;4.13;2.80;;;12.20;99.90;;;;;;4961361;28;20462;-67
2023/08/07 02:17:38;;;;;;;4.87;2.60;;;12.20;99.90;;;;;;4961468;28;20881;-67
2023/08/07 02:20:06;;;;;;;3.33;2.20;;;12.20;99.90;;;;;;4961764;28;20757;-66
2023/08/07 02:22:33;;;;;;;3.60;1.90;;;12.10;99.90;;;;;;4960845;28;20889;-67
2023/08/07 02:25:00;;;;;;;3.87;2.27;;;12.10;99.90;;;;;;4960674;28;20958;-68
2023/08/07 02:27:27;;;;;;;5.20;2.30;;;12.10;99.90;;;;;;4960379;28;20842;-66
2023/08/07 02:29:56;;;;;;;3.30;2.10;;;12.10;99.90;;;;;;4960123;28;20462;-65
2023/08/07 02:32:23;;;;;;;4.00;2.20;;;12.20;99.90;;;;;;4961188;28;20836;-66
2023/08/07 02:34:50;;;;;;;3.27;2.17;;;12.10;99.90;;;;;;4961119;28;20467;-67
2023/08/07 02:37:18;;;;;;;2.60;1.77;;;12.10;99.90;;;;;;4960439;28;20894;-66
2023/08/07 02:39:45;;;;;;;3.37;1.77;;;12.10;99.90;;;;;;4960232;28;20777;-66
2023/08/07 02:42:12;;;;;;;3.30;2.10;;;12.20;99.90;;;;;;4960291;28;20542;-66
2023/08/07 02:44:40;;;;;;;2.83;1.80;;;12.10;99.90;;;;;;4960588;28;20441;-66
2023/08/07 02:47:08;;;;;;;3.70;1.90;;;12.10;99.90;;;;;;4959513;28;20471;-66
2023/08/07 02:49:36;;;;;;;4.03;2.03;;;12.10;99.90;;;;;;4959748;28;20463;-68
2023/08/07 02:52:03;;;;;;;3.10;1.90;;;12.10;99.90;;;;;;4959478;28;20581;-67
2023/08/07 02:54:30;;;;;;;2.40;1.83;;;12.10;99.90;;;;;;4960167;28;20441;-67
2023/08/07 02:56:58;;;;;;;4.70;1.93;;;12.10;99.90;;;;;;4959289;28;20748;-67
2023/08/07 02:59:25;;;;;;;3.43;2.23;;;12.10;99.90;;;;;;4960072;28;20473;-67
2023/08/07 03:01:52;;;;;;;3.67;2.17;;;12.00;99.90;;;;;;4959988;28;20498;-67
2023/08/07 03:04:20;;;;;;;3.00;2.37;;;12.10;99.90;;;;;;4959985;28;20473;-66
2023/08/07 03:06:48;;;;;;;2.90;2.37;;;12.10;99.90;;;;;;4960215;28;20462;-68
2023/08/07 03:09:15;;;;;;;5.83;2.73;;;12.10;99.90;;;;;;4972053;28;20876;-65
2023/08/07 03:11:42;;;;;;;4.20;2.60;;;12.00;99.90;;;;;;4978094;28;20465;-65
2023/08/07 03:14:09;;;;;;;4.63;3.00;;;12.10;99.90;;;;;;4979008;28;20974;-67
2023/08/07 03:16:36;;;;;;;5.90;3.73;;;12.00;99.90;;;;;;4979418;28;20778;-66
2023/08/07 03:19:03;;;;;;;6.73;3.37;;;12.10;99.90;;;;;;4979244;28;20496;-66
2023/08/07 03:21:32;;;;;;;5.53;3.57;;;12.10;99.90;;;;;;4979876;28;20474;-66
2023/08/07 03:23:59;;;;;;;7.93;3.80;;;12.10;99.90;;;;;;4979168;28;20461;-65
2023/08/07 03:26:26;;;;;;;5.53;3.73;;;12.10;99.90;;;;;;4978477;28;20485;-65
2023/08/07 03:28:54;;;;;;;4.80;3.33;;;12.10;99.90;;;;;;4978655;28;20438;-65
2023/08/07 03:31:21;;;;;;;4.47;3.00;;;12.10;99.90;;;;;;4978528;28;20568;-65
2023/08/07 03:33:48;;;;;;;4.67;3.57;;;12.10;99.90;;;;;;4978431;28;20444;-65
2023/08/07 03:36:15;;;;;;;4.87;4.37;;;12.10;99.90;;;;;;4978728;28;20442;-67
2023/08/07 03:38:43;;;;;;;5.50;4.50;;;12.10;99.90;;;;;;4978548;28;20447;-66
2023/08/07 03:41:11;;;;;;;5.00;4.50;;;12.20;99.90;;;;;;4979051;28;20497;-67
2023/08/07 03:43:38;;;;;;;6.97;5.30;;;12.20;99.90;;;;;;4978490;28;20469;-67
2023/08/07 03:46:05;;;;;;;5.40;4.90;;;12.20;99.90;;;;;;4978632;28;20734;-65
2023/08/07 03:48:32;;;;;;;6.30;5.70;;;12.10;99.90;;;;;;4978704;28;20915;-67
2023/08/07 03:51:04;;;;;;;6.20;5.60;;;12.10;99.90;;;;;;4980736;28;20437;-68
2023/08/07 03:53:31;;;;;;;5.93;5.10;;;12.10;99.90;;;;;;4977998;28;20761;-70
2023/08/07 03:56:00;;;;;;;9.43;5.07;;;12.10;99.90;;;;;;4977366;28;20906;-66
2023/08/07 03:58:27;;;;;;;6.73;4.63;;;12.10;99.90;;;;;;4978813;28;20473;-68
2023/08/07 04:00:55;;;;;;;8.10;4.77;;;12.10;99.90;;;;;;4982287;28;20489;-68
2023/08/07 04:03:22;;;;;;;8.67;4.43;;;12.10;99.90;;;;;;4982846;28;20507;-69
2023/08/07 04:05:53;;;;;;;6.90;3.97;;;12.10;99.90;;;;;;4982374;28;20480;-66
2023/08/07 04:08:20;;;;;;;7.13;4.87;;;12.10;99.90;;;;;;4977162;28;20876;-66
2023/08/07 04:10:58;;;;;;;7.10;5.23;;;12.00;99.90;;;;;;4962863;28;20465;-69
2023/08/07 04:13:27;;;;;;;8.57;5.80;;;12.10;99.90;;;;;;4961570;28;20754;-69
2023/08/07 04:15:54;;;;;;;5.67;4.93;;;12.10;99.90;;;;;;4961549;28;20554;-66
2023/08/07 04:18:22;;;;;;;9.07;6.00;;;12.10;99.90;;;;;;4960858;28;20505;-68
2023/08/07 04:20:51;;;;;;;10.23;6.20;;;12.00;99.90;;;;;;4961534;28;20466;-65
2023/08/07 04:23:18;;;;;;;9.43;7.30;;;12.10;99.90;;;;;;4960797;28;20463;-70
2023/08/07 04:25:46;;;;;;;8.83;7.33;;;12.10;99.90;;;;;;4963249;28;20458;-69
2023/08/07 04:28:13;;;;;;;15.90;8.00;;;12.10;99.90;;;;;;4975204;28;20464;-70
2023/08/07 04:30:42;;;;;;;10.83;7.27;;;12.10;99.90;;;;;;4981347;28;20476;-68
2023/08/07 04:33:09;;;;;;;16.60;9.80;;;12.10;99.90;;;;;;4979911;28;20465;-69
2023/08/07 04:35:37;;;;;;;12.03;8.50;;;12.10;99.90;;;;;;4979558;28;20544;-69
2023/08/07 04:38:04;;;;;;;11.80;9.00;;;12.10;99.90;;;;;;4979460;28;20440;-68
2023/08/07 04:40:31;;;;;;;13.23;9.67;;;12.10;99.90;;;;;;4979313;28;20878;-67
2023/08/07 04:42:58;;;;;;;12.13;10.77;;;12.10;99.90;;;;;;4978171;28;20596;-67
2023/08/07 04:45:25;;;;;;;15.23;10.80;;;12.10;99.90;;;;;;4978019;28;20601;-68
2023/08/07 04:47:54;;;;;;;12.40;9.63;;;12.00;99.90;;;;;;4978157;28;20461;-67
2023/08/07 04:50:21;;;;;;;15.53;8.40;;;12.10;99.90;;;;;;4971861;28;20786;-69
2023/08/07 04:52:48;;;;;;;12.67;8.43;;;12.10;99.90;;;;;;4959293;28;20482;-67
2023/08/07 04:55:15;;;;;;;12.60;8.07;;;12.10;99.90;;;;;;4959086;29;20532;-69
2023/08/07 04:57:43;;;;;;;11.30;7.80;;;12.10;99.90;;;;;;4959507;29;20463;-66
2023/08/07 05:00:11;;;;;;;16.10;8.00;;;12.10;99.90;;;;;;4961710;29;20488;-71
2023/08/07 05:02:38;;;;;;;11.70;8.70;;;12.10;99.90;;;;;;4975170;28;20489;-67
2023/08/07 05:05:09;;;;;;;14.00;8.10;;;12.10;99.90;;;;;;4979241;28;20886;-69
2023/08/07 05:07:36;;;;;;;11.00;7.57;;;12.10;99.90;;;;;;4978958;28;20535;-69
2023/08/07 05:10:03;;;;;;;13.70;7.50;;;12.10;99.90;;;;;;4978544;28;20485;-67
2023/08/07 05:12:30;;;;;;;11.83;7.90;;;12.00;99.90;;;;;;4979461;28;20513;-68
2023/08/07 05:14:58;;;;;;;10.87;6.53;;;12.00;99.90;;;;;;4978950;28;20540;-66
2023/08/07 05:17:25;;;;;;;16.83;7.73;;;12.10;99.90;;;;;;4978927;28;20901;-68
2023/08/07 05:19:52;;;;;;;14.90;6.93;;;12.10;99.90;;;;;;4981597;28;20907;-68
2023/08/07 05:22:21;;;;;;;9.93;5.97;;;12.00;99.90;;;;;;4980930;28;20504;-70
2023/08/07 05:24:48;;;;;;;15.50;6.63;;;12.00;99.90;;;;;;4980381;28;20466;-69
2023/08/07 05:27:15;;;;;;;9.97;6.27;;;12.10;99.90;;;;;;4979379;28;20497;-66
2023/08/07 05:29:44;;;;;;;10.17;5.70;;;12.00;99.90;;;;;;4979196;28;20461;-65
2023/08/07 05:32:11;;;;;;;10.17;5.70;;;12.00;99.90;;;;;;4977948;28;20896;-68
2023/08/07 05:34:38;;;;;;;10.57;5.87;;;12.10;99.90;;;;;;4959671;28;20466;-65
2023/08/07 05:37:06;;;;;;;13.27;5.90;;;12.10;99.90;;;;;;4959253;29;20933;-65
2023/08/07 05:39:35;;;;;;;7.43;3.87;;;12.10;99.90;;;;;;4959798;29;20465;-68
2023/08/07 05:42:03;;;;;;;7.30;5.07;;;12.00;99.90;;;;;;4959574;28;20947;-67
2023/08/07 05:44:30;;;;;;;8.43;4.70;;;12.00;99.90;;;;;;4960146;29;20531;-68
2023/08/07 05:46:57;;;;;;;6.90;5.03;;;12.00;99.90;;;;;;4959035;29;20702;-67
2023/08/07 05:49:25;;;;;;;9.90;4.67;;;12.00;99.90;;;;;;4962134;29;20462;-68
2023/08/07 05:51:52;;;;;;;8.17;4.70;;;12.00;99.90;;;;;;4962678;29;20491;-64
2023/08/07 05:54:19;;;;;;;6.80;4.70;;;12.00;99.90;;;;;;4962854;29;20578;-64
2023/08/07 05:56:47;;;;;;;6.03;3.93;;;12.00;99.90;;;;;;4962556;28;20474;-63
2023/08/07 05:59:15;;;;;;;7.53;4.00;;;12.00;99.90;;;;;;4961845;28;20444;-65
2023/08/07 06:01:42;;;;;;;8.13;4.33;;;12.00;99.90;;;;;;4961047;28;20498;-68
2023/08/07 06:04:09;;;;;;;7.40;4.40;;;12.00;99.90;;;;;;4959586;29;20524;-67
2023/08/07 06:06:39;;;;;;;6.87;5.10;;;12.00;99.90;;;;;;4961877;28;20459;-65
2023/08/07 06:09:06;;;;;;;8.00;4.20;;;12.00;99.90;;;;;;4961734;29;20523;-67
2023/08/07 06:11:33;;;;;;;6.50;4.20;;;11.90;99.90;;;;;;4961325;29;20906;-63
2023/08/07 06:14:02;;;;;;;5.20;3.60;;;12.00;99.90;;;;;;4961876;28;20448;-69
2023/08/07 06:16:29;;;;;;;6.47;3.40;;;12.00;99.90;;;;;;4961264;28;20498;-67
2023/08/07 06:18:56;;;;;;;6.43;3.40;;;12.00;99.90;;;;;;4961285;29;20470;-67
2023/08/07 06:21:24;;;;;;;6.20;3.57;;;12.10;99.90;;;;;;4965500;28;20463;-67
2023/08/07 06:23:51;;;;;;;4.57;3.60;;;12.10;99.90;;;;;;4965463;28;20475;-68
2023/08/07 06:26:18;;;;;;;4.73;3.50;;;12.10;99.90;;;;;;4983016;28;20466;-66
2023/08/07 06:28:45;;;;;;;5.30;3.20;;;12.00;99.90;;;;;;4984159;28;20529;-66
2023/08/07 06:31:14;;;;;;;5.03;3.03;;;12.10;99.90;;;;;;4984395;28;20577;-68
2023/08/07 06:33:41;;;;;;;5.67;3.03;;;12.10;99.90;;;;;;4982912;28;20524;-66
2023/08/07 06:36:09;;;;;;;7.07;3.80;;;12.10;99.90;;;;;;4981262;28;20443;-69
2023/08/07 06:38:37;;;;;;;10.43;4.57;;;12.00;99.90;;;;;;4982990;28;20899;-65
2023/08/07 06:41:04;;;;;;;7.57;4.97;;;12.10;99.90;;;;;;4980075;28;20747;-71
2023/08/07 06:43:31;;;;;;;7.50;5.20;;;12.10;99.90;;;;;;4980327;28;20533;-65
2023/08/07 06:45:59;;;;;;;8.23;5.53;;;12.20;99.90;;;;;;4979766;28;20437;-66
2023/08/07 06:48:28;;;;;;;7.03;4.97;;;12.10;99.90;;;;;;4979727;28;20757;-69
2023/08/07 06:50:56;;;;;;;10.10;5.20;;;12.20;99.90;;;;;;4980413;28;20465;-69
2023/08/07 06:53:23;;;;;;;7.83;5.20;;;12.20;99.90;;;;;;4978794;28;20473;-68
2023/08/07 06:55:51;;;;;;;10.77;5.80;;;12.20;99.90;;;;;;4978013;28;20462;-69
2023/08/07 06:58:18;;;;;;;8.67;5.13;;;12.20;99.90;;;;;;4977822;28;20462;-68
2023/08/07 07:00:45;;;;;;;8.87;5.87;;;12.30;99.90;;;;;;4977371;28;20974;-66
2023/08/07 07:03:13;;;;;;;7.70;6.03;;;12.30;99.90;;;;;;4978069;28;20490;-69
2023/08/07 07:05:42;;;;;;;7.87;6.07;;;12.30;99.90;;;;;;4978633;28;20466;-69
2023/08/07 07:08:10;;;;;;;6.17;4.80;;;12.30;99.90;;;;;;4974695;28;20469;-70
2023/08/07 07:10:37;;;;;;;5.70;5.10;;;12.40;99.90;;;;;;4959615;29;20840;-67
2023/08/07 07:13:04;;;;;;;6.40;5.50;;;12.40;99.90;;;;;;4960569;28;20762;-67
2023/08/07 07:15:32;;;;;;;10.00;6.63;;;12.40;99.90;;;;;;4959710;28;20803;-70
2023/08/07 07:18:00;;;;;;;7.37;6.07;;;12.50;99.90;;;;;;4959411;29;20463;-68
2023/08/07 07:20:27;;;;;;;6.77;6.10;;;12.50;99.90;;;;;;4966725;28;20465;-65
2023/08/07 07:22:55;;;;;;;7.53;6.10;;;12.50;99.90;;;;;;4978595;28;20494;-70
2023/08/07 07:25:23;;;;;;;7.30;5.23;;;12.60;99.90;;;;;;4978772;28;20432;-66
2023/08/07 07:27:50;;;;;;;6.80;4.87;;;12.60;99.90;;;;;;4980138;28;20457;-68
2023/08/07 07:30:17;;;;;;;6.80;4.80;;;12.50;99.90;;;;;;4983181;28;20472;-69
2023/08/07 07:32:44;;;;;;;6.90;4.73;;;12.60;99.90;;;;;;4981653;28;20458;-66
2023/08/07 07:35:11;;;;;;;7.23;5.43;;;12.60;99.90;;;;;;4980990;28;20489;-67
2023/08/07 07:37:38;;;;;;;5.73;4.40;;;12.60;99.90;;;;;;4978620;28;20489;-70
2023/08/07 07:40:09;;;;;;;5.87;5.30;;;12.70;99.90;;;;;;4978537;28;20568;-70
2023/08/07 07:42:36;;;;;;;8.20;5.00;;;12.60;99.90;;;;;;4978849;28;20586;-69
2023/08/07 07:45:04;;;;;;;5.20;4.00;;;12.70;99.90;;;;;;4978682;28;20486;-68
2023/08/07 07:47:31;;;;;;;7.00;3.80;;;12.70;99.90;;;;;;4977946;28;20557;-70
2023/08/07 07:50:08;;;;;;;5.83;4.00;;;12.70;99.90;;;;;;4978004;28;20910;-69
2023/08/07 07:52:35;;;;;;;4.10;3.70;;;12.80;99.90;;;;;;4967650;28;20569;-70
2023/08/07 07:55:04;;;;;;;4.00;3.50;;;12.80;99.90;;;;;;4958979;28;20469;-70
2023/08/07 07:57:33;;;;;;;4.30;2.87;;;12.80;99.90;;;;;;4958567;28;20466;-70
2023/08/07 08:00:01;;;;;;;3.50;2.73;;;12.80;99.90;;;;;;4959372;28;20756;-66
2023/08/07 08:02:28;;;;;;;4.63;2.50;;;12.70;99.90;;;;;;4958304;28;20494;-71
2023/08/07 08:04:55;;;;;;;4.00;3.33;;;12.60;99.90;;;;;;4958064;28;20501;-67
2023/08/07 08:07:22;;;;;;;5.90;3.33;;;12.60;99.90;;;;;;4957590;28;20498;-69
2023/08/07 08:09:49;;;;;;;4.13;3.60;;;12.60;99.90;;;;;;4956795;28;20752;-68
2023/08/07 08:12:16;;;;;;;5.50;4.37;;;12.60;99.90;;;;;;4957766;28;20759;-67
2023/08/07 08:14:45;;;;;;;3.87;3.00;;;12.70;99.90;;;;;;4958545;28;20466;-68
2023/08/07 08:17:12;;;;;;;4.60;3.37;;;12.70;99.90;;;;;;4958914;28;20561;-70
2023/08/07 08:19:39;;;;;;;5.70;3.53;;;12.80;99.90;;;;;;4957744;28;20561;-68
2023/08/07 08:22:07;;;;;;;6.17;4.10;;;12.90;99.90;;;;;;4958225;28;20509;-69
2023/08/07 08:24:34;;;;;;;3.83;3.13;;;13.00;99.90;;;;;;4957784;28;20537;-69
2023/08/07 08:27:02;;;;;;;4.40;2.90;;;12.90;99.90;;;;;;4957623;29;20763;-64
2023/08/07 08:29:29;;;;;;;3.57;2.60;;;12.90;99.90;;;;;;4956766;29;20931;-69
2023/08/07 08:31:57;;;;;;;3.80;3.10;;;12.90;99.90;;;;;;4956835;29;20739;-67
2023/08/07 08:34:26;;;;;;;4.80;3.30;;;13.00;99.90;;;;;;4958042;29;20463;-69
2023/08/07 08:36:53;;;;;;;5.27;3.20;;;13.00;99.90;;;;;;4958402;29;20594;-68
2023/08/07 08:39:20;;;;;;;4.80;3.80;;;12.90;99.90;;;;;;4957158;29;20471;-68
2023/08/07 08:41:48;;;;;;;3.50;3.03;;;12.90;99.90;;;;;;4958377;29;20460;-64
2023/08/07 08:44:17;;;;;;;6.73;4.07;;;12.90;99.90;;;;;;4957706;28;20499;-66
2023/08/07 08:46:44;;;;;;;6.40;4.53;;;12.80;99.90;;;;;;4960236;29;20521;-66
2023/08/07 08:49:17;;;;;;;7.77;4.00;;;12.90;99.90;;;;;;4959621;29;20561;-70
2023/08/07 08:51:44;;;;;;;8.80;4.77;;;13.10;99.90;;;;;;4961945;29;20492;-66
2023/08/07 08:54:12;;;;;;;6.53;3.90;;;13.10;99.90;;;;;;4963413;29;20943;-68
2023/08/07 08:56:40;;;;;;;7.00;4.60;;;13.20;99.90;;;;;;4960173;29;20458;-70
2023/08/07 08:59:07;;;;;;;9.10;5.50;;;13.20;99.90;;;;;;4962663;29;20463;-66
2023/08/07 09:01:35;;;;;;;9.53;6.30;;;13.10;99.90;;;;;;4964646;29;20563;-68
2023/08/07 09:04:04;;;;;;;7.50;5.47;;;13.20;99.90;;;;;;4963536;29;20504;-67
2023/08/07 09:06:33;;;;;;;6.67;4.83;;;13.40;99.90;;;;;;4962393;29;20506;-68
2023/08/07 09:09:02;;;;;;;9.77;5.40;;;13.60;99.90;;;;;;4971883;28;20462;-63
2023/08/07 09:11:30;;;;;;;6.90;5.20;;;13.80;99.90;;;;;;4980621;28;20521;-61
2023/08/07 09:13:58;;;;;;;8.63;5.77;;;14.10;99.90;;;;;;4981082;28;20884;-61
2023/08/07 09:16:25;;;;;;;9.00;5.37;;;14.30;99.90;;;;;;4980964;28;20466;-61
2023/08/07 09:18:54;;;;;;;10.50;5.67;;;14.10;99.90;;;;;;4981215;28;20826;-60
2023/08/07 09:21:22;;;;;;;6.73;5.40;;;13.90;99.90;;;;;;4980957;28;20466;-60
2023/08/07 09:23:51;;;;;;;9.67;6.10;;;13.90;99.90;;;;;;4979211;28;20784;-62
2023/08/07 09:26:24;;;;;;;9.90;5.70;;;13.80;99.90;;;;;;4979225;28;20480;-62
2023/08/07 09:28:53;;;;;;;10.13;5.43;;;13.90;99.90;;;;;;4971121;28;20463;-60
2023/08/07 09:31:21;;;;;;;8.60;5.17;;;14.00;99.90;;;;;;4958962;28;20478;-63
2023/08/07 09:33:49;;;;;;;10.20;4.87;;;14.30;99.90;;;;;;4958507;29;20461;-61
2023/08/07 09:36:17;;;;;;;12.33;5.53;;;14.30;99.90;;;;;;4958495;29;20458;-63
2023/08/07 09:38:44;;;;;;;8.13;5.40;;;14.40;99.90;;;;;;4962543;28;20553;-62
2023/08/07 09:41:13;;;;;;;6.90;5.33;;;14.10;99.90;;;;;;4967194;28;20440;-60
2023/08/07 09:43:40;;;;;;;9.57;6.27;;;14.10;99.90;;;;;;4973285;28;20482;-61
2023/08/07 09:46:08;;;;;;;10.93;5.90;;;14.10;99.90;;;;;;4960266;29;20557;-61
2023/08/07 09:48:41;;;;;;;13.17;5.87;;;14.20;99.90;;;;;;4972849;28;20458;-62
2023/08/07 09:51:09;;;;;;;10.57;6.20;;;14.70;99.90;;;;;;4979555;28;20468;-60
2023/08/07 09:53:36;;;;;;;10.57;4.60;;;14.80;99.90;;;;;;4980206;28;20516;-62
2023/08/07 09:56:04;;;;;;;6.80;4.53;;;15.30;99.90;;;;;;4979553;28;20492;-61
2023/08/07 09:58:32;;;;;;;8.43;5.57;;;15.00;99.90;;;;;;4980431;28;20776;-61
2023/08/07 10:01:01;;;;;;;9.03;5.77;;;15.00;99.90;;;;;;4966827;28;20455;-61
2023/08/07 10:03:30;;;;;;;7.67;5.53;;;15.00;99.90;;;;;;4960335;28;20498;-59
2023/08/07 10:05:58;;;;;;;8.13;6.37;;;14.70;99.90;;;;;;4960634;28;20473;-60
2023/08/07 10:08:26;;;;;;;10.90;6.20;;;14.50;99.90;;;;;;4960929;28;20469;-60
2023/08/07 10:10:53;;;;;;;6.97;6.27;;;14.30;99.90;;;;;;4961005;28;20565;-60
2023/08/07 10:13:22;;;;;;;7.27;4.47;;;14.20;99.90;;;;;;4960783;28;20895;-60
2023/08/07 10:15:51;;;;;;;8.67;4.60;;;14.00;99.90;;;;;;4960540;28;20554;-61
2023/08/07 10:18:18;;;;;;;6.57;4.80;;;14.00;99.90;;;;;;4960715;28;20502;-60
2023/08/07 10:20:46;;;;;;;7.50;4.80;;;14.40;99.90;;;;;;4960169;28;20477;-60
2023/08/07 10:23:17;;;;;;;7.73;4.60;;;14.70;99.90;;;;;;4960427;28;20633;-61
2023/08/07 10:25:46;;;;;;;6.87;4.83;;;14.90;99.90;;;;;;4960378;28;20604;-60
2023/08/07 10:28:17;;;;;;;11.17;5.13;;;15.10;99.90;;;;;;4960181;28;20467;-61
2023/08/07 10:30:45;;;;;;;10.60;5.70;;;14.90;99.90;;;;;;4960408;28;20462;-64
2023/08/07 10:33:14;;;;;;;8.93;5.43;;;14.80;99.90;;;;;;4960621;28;20476;-62
2023/08/07 10:35:47;;;;;;;9.90;5.00;;;14.50;99.90;;;;;;4960365;28;20509;-61
2023/08/07 10:38:14;;;;;;;10.10;4.30;;;14.80;99.90;;;;;;4979773;28;20466;-60
2023/08/07 10:40:59;;;;;;;9.77;5.30;;;14.80;99.90;;;;;;4977163;28;20482;-61
2023/08/07 10:43:28;;;;;;;10.67;4.80;;;15.30;99.90;;;;;;4967760;28;20494;-61
2023/08/07 10:45:55;;;;;;;7.33;3.80;;;15.60;99.90;;;;;;4963674;28;20525;-63
2023/08/07 10:48:24;;;;;;;9.13;4.50;;;15.60;99.90;;;;;;4977052;28;20962;-60
2023/08/07 10:50:57;;;;;;;11.47;4.53;;;15.20;99.90;;;;;;4959813;29;20561;-62
2023/08/07 10:53:31;;;;;;;11.03;5.23;;;15.40;99.90;;;;;;4972309;28;20895;-60
2023/08/07 10:55:58;;;;;;;8.00;5.23;;;15.30;99.90;;;;;;4959699;29;20561;-60
2023/08/07 10:58:26;;;;;;;9.70;5.97;;;15.60;99.90;;;;;;4960093;28;20462;-60
2023/08/07 11:01:09;;;;;;;9.60;4.60;;;15.90;99.90;;;;;;4965178;28;20463;-60
2023/08/07 11:03:38;;;;;;;8.43;4.97;;;16.10;99.90;;;;;;4971443;28;20500;-60
2023/08/07 11:06:06;;;;;;;8.00;5.17;;;16.30;99.90;;;;;;4957787;28;20514;-60
2023/08/07 11:08:33;;;;;;;11.00;4.97;;;16.30;99.90;;;;;;4958482;28;20901;-60
2023/08/07 11:11:05;;;;;;;10.77;4.50;;;16.30;99.90;;;;;;4969159;28;20443;-60
2023/08/07 11:13:33;;;;;;;8.50;4.33;;;16.30;1.00;;;;;;4977169;28;20496;-61
2023/08/07 11:16:01;;;;;;;9.27;5.37;;;16.10;99.90;;;;;;4976120;28;20556;-61
2023/08/07 11:18:28;;;;;;;7.20;4.10;;;16.00;99.90;;;;;;4974721;28;20464;-61
2023/08/07 11:20:57;;;;;;;9.67;4.40;;;15.60;1.00;;;;;;4958981;28;20563;-60
2023/08/07 11:23:25;;;;;;;8.10;5.10;;;15.60;1.00;;;;;;4958574;29;20615;-60
2023/08/07 11:25:53;;;;;;;11.90;5.17;;;15.50;1.00;;;;;;4966097;28;20884;-59
2023/08/07 11:28:20;;;;;;;10.57;5.10;;;15.40;1.00;;;;;;4976240;28;20462;-59
2023/08/07 11:30:50;;;;;;;5.43;4.10;;;15.10;1.00;;;;;;4976540;28;20532;-59
2023/08/07 11:33:19;;;;;;;6.60;3.93;;;14.90;1.00;;;;;;4977115;28;20512;-61
2023/08/07 11:35:46;;;;;;;8.87;4.67;;;14.70;24.20;;;;;;4976852;28;20496;-60
2023/08/07 11:38:31;;;;;;;9.40;4.87;;;14.70;99.90;;;;;;4957596;29;20955;-60
2023/08/07 11:41:00;;;;;;;7.53;4.03;;;14.80;1.00;;;;;;4957912;29;20470;-60
2023/08/07 11:43:29;;;;;;;7.53;5.00;;;15.30;1.00;;;;;;4958300;28;20831;-61
2023/08/07 11:45:58;;;;;;;10.60;4.70;;;16.00;1.00;;;;;;4960855;28;20478;-61
2023/08/07 11:48:26;;;;;;;12.93;5.60;;;16.30;1.00;;;;;;4958933;29;20789;-61
2023/08/07 11:50:53;;;;;;;8.37;4.43;;;16.90;1.00;;;;;;4959417;29;20469;-60
2023/08/07 11:53:22;;;;;;;7.57;4.43;;;17.50;1.00;;;;;;4958330;29;20557;-61
2023/08/07 11:55:54;;;;;;;8.10;4.00;;;18.00;99.90;;;;;;4972428;28;20484;-61
2023/08/07 11:58:22;;;;;;;4.83;3.57;;;18.50;99.90;;;;;;4977908;28;20488;-61
2023/08/07 12:00:50;;;;;;;5.30;3.60;;;19.00;93.70;;;;;;4978390;28;20462;-61
2023/08/07 12:03:28;;;;;;;6.20;4.10;;;19.00;1.00;;;;;;4978079;28;20539;-61
2023/08/07 12:06:00;;;;;;;7.07;3.70;;;18.70;1.00;;;;;;4978280;28;20497;-60
2023/08/07 12:08:34;;;;;;;11.80;4.17;;;18.20;1.00;;;;;;4976949;28;20458;-60
2023/08/07 12:11:04;;;;;;;7.37;4.20;;;17.50;1.00;;;;;;4976952;28;20458;-61
2023/08/07 12:13:34;;;;;;;8.70;4.03;;;16.90;1.00;;;;;;4976453;28;20450;-58
2023/08/07 12:16:03;;;;;;;10.60;4.27;;;16.50;1.00;;;;;;4977101;28;20556;-61
2023/08/07 12:18:31;;;;;;;6.73;4.37;;;16.10;1.00;;;;;;4977433;28;20545;-61
2023/08/07 12:21:00;;;;;;;8.57;4.93;;;15.90;51.50;;;;;;4980449;28;20507;-60
2023/08/07 12:23:27;;;;;;;7.10;4.30;;;15.70;99.90;;;;;;4976981;28;20495;-59
2023/08/07 12:25:56;;;;;;;8.63;4.60;;;16.10;99.90;;;;;;4962159;29;20824;-60
2023/08/07 12:28:23;;;;;;;10.80;5.03;;;16.70;99.90;;;;;;4961752;28;20802;-60
2023/08/07 12:30:52;;;;;;;8.73;4.80;;;17.30;99.90;;;;;;4962421;29;20765;-62
2023/08/07 12:33:19;;;;;;;8.33;4.40;;;17.90;99.90;;;;;;4961154;29;20489;-60
2023/08/07 12:35:47;;;;;;;9.43;5.10;;;17.80;46.70;;;;;;4960886;28;20741;-60
2023/08/07 12:38:14;;;;;;;10.43;4.83;;;17.00;6.20;;;;;;4960786;29;20553;-60
2023/08/07 12:40:42;;;;;;;11.57;5.03;;;16.70;99.90;;;;;;4961583;29;20851;-60
2023/08/07 12:43:11;;;;;;;8.70;5.60;;;16.50;1.00;;;;;;4961990;28;20860;-61
2023/08/07 12:45:38;;;;;;;9.17;4.40;;;16.20;97.20;;;;;;4960942;29;20472;-61
2023/08/07 12:48:06;;;;;;;11.53;4.67;;;16.10;99.90;;;;;;4959901;29;20470;-61
2023/08/07 12:50:34;;;;;;;6.87;4.00;;;16.20;69.70;;;;;;4959420;28;20496;-61